createdAt,value
2022-09-29T06:14:56.874Z,993.83
2022-09-29T06:24:56.799Z,993.82
2022-09-29T06:34:58.628Z,993.87
2022-09-29T06:44:56.999Z,994.02
2022-09-29T06:54:56.747Z,994.01
2022-09-29T07:04:56.989Z,994.18
2022-09-29T07:14:57.211Z,994.33
2022-09-29T07:24:57.192Z,994.44
2022-09-29T07:34:57.375Z,994.51
2022-09-29T07:44:57.400Z,994.80
2022-09-29T07:54:57.147Z,994.83
2022-09-29T08:05:00.641Z,994.93
2022-09-29T08:14:57.194Z,994.91
2022-09-29T08:24:57.224Z,995.05
2022-09-29T08:34:57.151Z,995.21
2022-09-29T08:45:06.951Z,995.23
2022-09-29T08:54:57.273Z,995.26
2022-09-29T09:04:57.305Z,995.34
2022-09-29T09:14:57.366Z,995.40
2022-09-29T09:24:57.347Z,995.40
2022-09-29T09:35:00.049Z,995.51
2022-09-29T09:44:57.257Z,995.54
2022-09-29T09:54:57.277Z,995.47
2022-09-29T10:04:57.269Z,995.50
2022-09-29T10:14:57.215Z,995.48
2022-09-29T10:24:57.081Z,995.53
2022-09-29T10:34:57.442Z,995.55
2022-09-29T10:44:57.128Z,995.63
2022-09-29T10:54:57.304Z,995.54
2022-09-29T11:04:57.287Z,995.59
2022-09-29T11:14:57.281Z,995.43
2022-09-29T11:24:57.207Z,995.61
2022-09-29T11:34:57.477Z,995.72
2022-09-29T11:44:57.232Z,995.63
2022-09-29T11:54:57.230Z,995.82
2022-09-29T12:04:57.315Z,995.91
2022-09-29T12:14:57.370Z,995.84
2022-09-29T12:24:57.383Z,995.84
2022-09-29T12:34:57.518Z,995.80
2022-09-29T12:44:57.541Z,995.84
2022-09-29T12:54:57.407Z,995.72
2022-09-29T13:04:57.446Z,995.76
2022-09-29T13:14:57.508Z,995.91
2022-09-29T13:24:57.478Z,995.86
2022-09-29T13:34:57.494Z,995.84
2022-09-29T13:44:57.595Z,995.85
2022-09-29T13:54:57.492Z,996.00
2022-09-29T14:04:57.421Z,996.02
2022-09-29T14:14:57.553Z,996.05
2022-09-29T14:24:57.496Z,995.96
2022-09-29T14:34:57.655Z,996.06
2022-09-29T14:44:57.571Z,996.24
2022-09-29T14:54:57.664Z,996.29
2022-09-29T15:04:57.755Z,996.39
2022-09-29T15:14:57.649Z,996.33
2022-09-29T15:24:57.552Z,996.48
2022-09-29T15:34:57.558Z,996.71
2022-09-29T15:44:57.712Z,996.58
2022-09-29T15:54:57.569Z,996.67
2022-09-29T16:04:57.508Z,996.73
2022-09-29T16:14:57.579Z,996.91
2022-09-29T16:24:57.525Z,997.03
2022-09-29T16:34:57.668Z,997.25
2022-09-29T16:44:57.591Z,997.33
2022-09-29T16:54:57.504Z,997.45
2022-09-29T17:04:57.689Z,997.52
2022-09-29T17:14:57.564Z,997.69
2022-09-29T17:24:57.714Z,997.64
2022-09-29T17:34:57.637Z,997.81
2022-09-29T17:44:57.777Z,997.90
2022-09-29T17:54:57.842Z,998.04
2022-09-29T18:04:57.672Z,998.09
2022-09-29T18:14:57.957Z,998.09
2022-09-29T18:24:57.850Z,998.03
2022-09-29T18:34:57.673Z,998.06
2022-09-29T18:44:57.869Z,998.16
2022-09-29T18:54:57.861Z,998.13
2022-09-29T19:04:57.905Z,998.17
2022-09-29T19:14:58.040Z,998.31
